Time;durP1;ratioP1;P1;durP2;ratioP2;P2;SDS_P1;SDS_P2;PMS_P1;PMS_P2;Temp;Humidity;BMP_temperature;BMP_pressure;BME280_temperature;BME280_humidity;BME280_pressure;Samples;Min_cycle;Max_cycle;Signal;HPM_P1;HPM_P2
2023/07/14 00:00:35;;;;;;;8.27;3.95;;;24.60;66.40;;;;;;5026340;28;20022;-58
2023/07/14 00:03:01;;;;;;;7.80;3.55;;;24.60;66.70;;;;;;5025068;28;20061;-57
2023/07/14 00:05:29;;;;;;;8.43;3.38;;;24.60;66.80;;;;;;5005530;28;20486;-57
2023/07/14 00:07:55;;;;;;;7.63;2.67;;;24.60;66.90;;;;;;4989594;28;20045;-57
2023/07/14 00:10:26;;;;;;;7.25;3.40;;;24.50;67.00;;;;;;4999802;28;20045;-57
2023/07/14 00:12:51;;;;;;;8.45;3.38;;;24.50;67.00;;;;;;5025518;28;20030;-58
2023/07/14 00:15:17;;;;;;;10.18;3.05;;;24.50;67.10;;;;;;5026418;28;20022;-57
2023/07/14 00:17:43;;;;;;;8.23;3.10;;;24.40;67.20;;;;;;5019305;28;20062;-57
2023/07/14 00:20:18;;;;;;;7.82;3.78;;;24.40;67.30;;;;;;4989210;28;20026;-57
2023/07/14 00:22:44;;;;;;;10.95;3.42;;;24.40;67.40;;;;;;5005360;28;20062;-57
2023/07/14 00:25:13;;;;;;;8.85;3.30;;;24.30;67.40;;;;;;5020996;28;20057;-57
2023/07/14 00:27:38;;;;;;;11.77;3.28;;;24.30;67.60;;;;;;5022229;28;20064;-57
2023/07/14 00:30:20;;;;;;;7.72;3.20;;;24.30;67.70;;;;;;5024641;28;20121;-57
2023/07/14 00:32:47;;;;;;;6.80;4.28;;;24.20;67.80;;;;;;5024959;28;20045;-57
2023/07/14 00:35:38;;;;;;;9.50;4.97;;;24.20;67.70;;;;;;5008881;28;20031;-58
2023/07/14 00:38:05;;;;;;;10.52;4.65;;;24.20;67.80;;;;;;5011065;28;20042;-57
2023/07/14 00:40:36;;;;;;;7.53;4.80;;;24.20;67.90;;;;;;5025233;28;20026;-57
2023/07/14 00:43:01;;;;;;;8.75;4.00;;;24.20;68.10;;;;;;5025306;28;20037;-57
2023/07/14 00:45:27;;;;;;;5.93;3.70;;;24.20;68.20;;;;;;5008001;28;20514;-58
2023/07/14 00:48:03;;;;;;;9.23;3.92;;;24.10;68.20;;;;;;5024741;28;20090;-57
2023/07/14 00:51:04;;;;;;;6.38;3.40;;;24.10;68.30;;;;;;5024616;28;20037;-57
2023/07/14 00:53:33;;;;;;;8.88;3.50;;;24.10;68.30;;;;;;5020008;28;20186;-58
2023/07/14 00:56:08;;;;;;;4.97;3.10;;;24.10;68.50;;;;;;5025218;28;20038;-58
2023/07/14 00:58:33;;;;;;;23.40;13.60;;;24.00;68.60;;;;;;5025362;28;20038;-58
2023/07/14 01:01:24;;;;;;;13.38;7.60;;;24.00;68.70;;;;;;5004395;28;20033;-57
2023/07/14 01:03:56;;;;;;;16.75;6.53;;;23.90;68.80;;;;;;5015134;28;20030;-57
2023/07/14 01:06:26;;;;;;;10.32;6.00;;;23.90;69.00;;;;;;5024492;28;20049;-58
2023/07/14 01:08:57;;;;;;;9.52;5.50;;;23.80;69.00;;;;;;5021238;28;20038;-58
2023/07/14 01:11:26;;;;;;;9.40;5.35;;;23.80;69.10;;;;;;5005010;28;20033;-57
2023/07/14 01:13:52;;;;;;;10.80;5.80;;;23.90;69.10;;;;;;5016684;28;20040;-58
2023/07/14 01:16:18;;;;;;;11.25;5.65;;;23.90;69.30;;;;;;5026048;28;20026;-58
2023/07/14 01:18:43;;;;;;;13.88;6.32;;;23.80;69.20;;;;;;5026897;28;20521;-58
2023/07/14 01:21:09;;;;;;;14.45;5.85;;;23.80;69.30;;;;;;5029396;28;20050;-57
2023/07/14 01:23:53;;;;;;;9.02;5.45;;;23.70;70.00;;;;;;5028199;28;20057;-57
2023/07/14 01:26:47;;;;;;;11.75;5.35;;;23.70;69.50;;;;;;5040570;28;20026;-57
2023/07/14 01:29:13;;;;;;;10.23;5.40;;;23.70;69.60;;;;;;5019806;28;20038;-57
2023/07/14 01:31:38;;;;;;;12.13;5.30;;;23.70;69.60;;;;;;5011099;28;20390;-57
2023/07/14 01:34:04;;;;;;;9.70;4.68;;;23.60;69.60;;;;;;5010255;28;20045;-58
2023/07/14 01:36:29;;;;;;;11.32;5.07;;;23.60;69.80;;;;;;5021908;28;20037;-57
2023/07/14 01:38:55;;;;;;;8.32;4.50;;;23.60;69.80;;;;;;5009470;28;20038;-58
2023/07/14 01:41:21;;;;;;;7.70;4.85;;;23.60;69.90;;;;;;5027935;28;20041;-57
2023/07/14 01:43:46;;;;;;;9.20;4.80;;;23.60;70.00;;;;;;5011255;28;20128;-57
2023/07/14 01:46:18;;;;;;;9.68;4.55;;;23.60;70.00;;;;;;5011171;28;20033;-57
2023/07/14 01:48:58;;;;;;;8.18;4.53;;;23.50;70.00;;;;;;5029069;28;20040;-57
2023/07/14 01:51:28;;;;;;;9.38;3.90;;;23.50;70.10;;;;;;5028935;28;20049;-57
2023/07/14 01:54:05;;;;;;;5.82;3.90;;;23.50;70.30;;;;;;5027604;28;20048;-57
2023/07/14 01:56:32;;;;;;;11.90;4.13;;;23.40;70.30;;;;;;5027428;28;20025;-57
2023/07/14 01:59:09;;;;;;;6.78;4.22;;;23.40;70.50;;;;;;5027116;28;20033;-56
2023/07/14 02:01:35;;;;;;;7.05;3.65;;;23.40;70.50;;;;;;5020314;28;20434;-57
2023/07/14 02:04:04;;;;;;;7.00;4.38;;;23.30;70.50;;;;;;5021564;28;20034;-57
2023/07/14 02:06:30;;;;;;;10.27;4.80;;;23.40;70.70;;;;;;5016309;28;20030;-57
2023/07/14 02:08:56;;;;;;;10.00;4.55;;;23.30;70.70;;;;;;5026166;28;20042;-57
2023/07/14 02:11:22;;;;;;;7.10;4.70;;;23.30;70.80;;;;;;5028081;28;20048;-57
2023/07/14 02:13:50;;;;;;;9.10;4.40;;;23.30;70.90;;;;;;5026856;28;20045;-57
2023/07/14 02:16:15;;;;;;;11.13;5.95;;;23.30;71.10;;;;;;5027276;28;20041;-57
2023/07/14 02:18:42;;;;;;;8.68;6.47;;;23.30;71.10;;;;;;5025982;28;20049;-57
2023/07/14 02:21:07;;;;;;;8.60;6.63;;;23.20;71.20;;;;;;5009883;28;20023;-57
2023/07/14 02:23:33;;;;;;;8.90;5.22;;;23.20;71.30;;;;;;5028758;28;20040;-57
2023/07/14 02:25:58;;;;;;;7.90;4.57;;;23.20;71.40;;;;;;5012911;28;20034;-57
2023/07/14 02:28:24;;;;;;;7.80;4.53;;;23.10;71.40;;;;;;5027555;28;20061;-57
2023/07/14 02:30:53;;;;;;;6.15;4.45;;;23.10;71.50;;;;;;5006972;28;20037;-57
2023/07/14 02:33:27;;;;;;;10.43;4.78;;;23.10;71.50;;;;;;5027672;28;20121;-57
2023/07/14 02:36:27;;;;;;;6.97;4.40;;;23.10;71.70;;;;;;5026965;28;20026;-57
2023/07/14 02:38:55;;;;;;;9.60;4.68;;;23.00;71.80;;;;;;5027844;28;20030;-56
2023/07/14 02:41:28;;;;;;;8.88;4.72;;;23.00;71.90;;;;;;5025614;28;20026;-57
2023/07/14 02:43:55;;;;;;;9.65;4.70;;;23.00;72.10;;;;;;5021989;28;20033;-57
2023/07/14 02:46:38;;;;;;;8.27;4.72;;;23.00;72.10;;;;;;4999489;28;20034;-57
2023/07/14 02:49:03;;;;;;;6.82;5.45;;;23.00;72.20;;;;;;5016592;28;20026;-57
2023/07/14 02:51:29;;;;;;;6.60;5.82;;;23.00;72.20;;;;;;5003957;28;20030;-57
2023/07/14 02:53:54;;;;;;;7.65;5.50;;;22.90;72.20;;;;;;5028226;28;20030;-57
2023/07/14 02:56:20;;;;;;;7.18;5.60;;;22.90;72.30;;;;;;5027451;28;20025;-57
2023/07/14 02:58:49;;;;;;;7.95;5.00;;;22.90;72.30;;;;;;5025743;28;20053;-56
2023/07/14 03:01:15;;;;;;;7.68;5.60;;;22.90;72.50;;;;;;5019892;28;20026;-57
2023/07/14 03:03:41;;;;;;;8.70;5.13;;;22.90;72.50;;;;;;5022874;28;20034;-57
2023/07/14 03:06:09;;;;;;;9.73;4.75;;;22.80;72.50;;;;;;5008177;28;20025;-57
2023/07/14 03:08:35;;;;;;;6.60;4.60;;;22.80;72.60;;;;;;5006467;28;20110;-57
2023/07/14 03:11:00;;;;;;;8.73;4.60;;;22.80;72.70;;;;;;5006626;28;20030;-57
2023/07/14 03:13:26;;;;;;;11.00;5.43;;;22.70;72.80;;;;;;5007668;28;20026;-57
2023/07/14 03:15:52;;;;;;;8.80;4.80;;;22.70;72.90;;;;;;5006414;28;20026;-57
2023/07/14 03:18:17;;;;;;;6.22;4.53;;;22.70;73.00;;;;;;5018009;28;20034;-57
2023/07/14 03:20:43;;;;;;;7.45;5.07;;;22.70;73.10;;;;;;5004968;28;20038;-57
2023/07/14 03:23:09;;;;;;;8.20;4.68;;;22.70;73.20;;;;;;5015983;28;20038;-57
2023/07/14 03:25:34;;;;;;;6.50;4.32;;;22.70;73.20;;;;;;5025412;28;20030;-57
2023/07/14 03:28:03;;;;;;;7.25;4.72;;;22.60;73.30;;;;;;5026457;28;20088;-57
2023/07/14 03:30:30;;;;;;;9.38;5.72;;;22.60;73.30;;;;;;5011459;28;20034;-57
2023/07/14 03:32:56;;;;;;;7.47;5.65;;;22.60;73.50;;;;;;5007189;28;20035;-57
2023/07/14 03:35:21;;;;;;;10.93;5.90;;;22.60;73.70;;;;;;5024446;28;20029;-57
2023/07/14 03:37:47;;;;;;;8.48;4.97;;;22.60;73.80;;;;;;5024910;28;20061;-57
2023/07/14 03:40:13;;;;;;;6.05;4.50;;;22.50;73.70;;;;;;4998590;28;20029;-57
2023/07/14 03:42:38;;;;;;;8.50;4.65;;;22.50;73.80;;;;;;5005708;28;20041;-57
2023/07/14 03:45:05;;;;;;;27.92;8.05;;;22.50;73.90;;;;;;5021346;28;20040;-57
2023/07/14 03:47:31;;;;;;;23.63;7.53;;;22.50;74.00;;;;;;5008976;28;20034;-57
2023/07/14 03:49:57;;;;;;;27.70;7.32;;;22.50;74.00;;;;;;5015556;28;20114;-57
2023/07/14 03:52:22;;;;;;;48.63;10.48;;;22.40;74.00;;;;;;5016797;28;20553;-57
2023/07/14 03:54:48;;;;;;;46.75;9.07;;;22.40;74.20;;;;;;5012079;28;20031;-57
2023/07/14 03:57:14;;;;;;;30.33;8.57;;;22.40;74.20;;;;;;5026515;28;20044;-56
2023/07/14 03:59:39;;;;;;;27.92;7.57;;;22.40;74.30;;;;;;5026270;28;20037;-57
2023/07/14 04:02:05;;;;;;;39.67;8.20;;;22.40;74.30;;;;;;5024001;28;20069;-58
2023/07/14 04:04:31;;;;;;;35.97;7.30;;;22.40;74.40;;;;;;5024425;28;20030;-57
2023/07/14 04:06:57;;;;;;;32.97;7.75;;;22.40;74.50;;;;;;5008099;28;20035;-56
2023/07/14 04:09:22;;;;;;;37.20;7.53;;;22.40;74.60;;;;;;5024425;28;20025;-56
2023/07/14 04:11:48;;;;;;;23.45;7.15;;;22.30;74.50;;;;;;5024989;28;20053;-57
2023/07/14 04:14:14;;;;;;;30.77;7.63;;;22.30;74.60;;;;;;5008110;28;20683;-57
2023/07/14 04:16:39;;;;;;;36.80;8.10;;;22.30;74.60;;;;;;5024740;28;20383;-57
2023/07/14 04:19:05;;;;;;;25.13;7.45;;;22.30;74.70;;;;;;5023639;28;20069;-57
2023/07/14 04:21:31;;;;;;;29.98;7.75;;;22.20;74.70;;;;;;5026215;28;20026;-57
2023/07/14 04:23:57;;;;;;;28.23;7.95;;;22.30;74.80;;;;;;5007058;28;20042;-57
2023/07/14 04:26:23;;;;;;;29.05;7.72;;;22.20;74.80;;;;;;5008005;28;20030;-57
2023/07/14 04:28:49;;;;;;;33.70;7.47;;;22.20;74.90;;;;;;5024991;28;20454;-57
2023/07/14 04:31:14;;;;;;;26.10;7.10;;;22.20;74.90;;;;;;5023736;28;20058;-57
2023/07/14 04:33:44;;;;;;;27.83;7.43;;;22.20;75.00;;;;;;5018326;28;20038;-57
2023/07/14 04:36:10;;;;;;;24.73;7.25;;;22.10;74.90;;;;;;5015210;28;20120;-57
2023/07/14 04:38:35;;;;;;;21.95;6.22;;;22.10;75.00;;;;;;5004680;28;20446;-57
2023/07/14 04:41:02;;;;;;;17.13;6.63;;;22.20;75.10;;;;;;5008861;28;20056;-56
2023/07/14 04:43:27;;;;;;;20.00;6.25;;;22.20;75.20;;;;;;5025740;28;20029;-57
2023/07/14 04:45:53;;;;;;;19.25;6.28;;;22.10;75.20;;;;;;5009895;28;20091;-57
2023/07/14 04:48:19;;;;;;;20.42;6.13;;;22.10;75.30;;;;;;5029222;28;20117;-57
2023/07/14 04:50:46;;;;;;;19.25;6.13;;;22.10;75.30;;;;;;5027284;28;20240;-57
2023/07/14 04:53:12;;;;;;;18.77;5.97;;;22.10;75.60;;;;;;5031207;28;20034;-56
2023/07/14 04:55:40;;;;;;;28.75;6.05;;;22.10;76.10;;;;;;5029237;28;20053;-56
2023/07/14 04:58:06;;;;;;;16.10;5.25;;;22.10;76.40;;;;;;5013026;28;20027;-57
2023/07/14 05:00:31;;;;;;;15.98;5.43;;;22.00;76.20;;;;;;5025330;28;20092;-56
2023/07/14 05:02:57;;;;;;;16.73;5.38;;;22.00;75.90;;;;;;5020681;28;20049;-57
2023/07/14 05:05:24;;;;;;;13.95;6.38;;;22.00;75.90;;;;;;5029701;28;20090;-57
2023/07/14 05:07:49;;;;;;;21.65;7.60;;;22.00;75.90;;;;;;5028569;28;20121;-56
2023/07/14 05:10:19;;;;;;;14.27;5.97;;;22.00;76.10;;;;;;5008687;28;20038;-57
2023/07/14 05:12:45;;;;;;;14.43;6.10;;;21.90;76.10;;;;;;4991715;28;20057;-57
2023/07/14 05:15:10;;;;;;;24.92;5.90;;;22.00;76.30;;;;;;5015599;28;20046;-57
2023/07/14 05:17:37;;;;;;;14.40;5.55;;;21.90;76.30;;;;;;5021625;28;20030;-57
2023/07/14 05:20:06;;;;;;;20.20;5.53;;;21.90;76.30;;;;;;5015716;28;20033;-57
2023/07/14 05:22:31;;;;;;;10.70;5.60;;;21.90;77.20;;;;;;5017035;28;20065;-57
2023/07/14 05:24:57;;;;;;;16.77;4.90;;;21.90;76.50;;;;;;5008004;28;20089;-56
2023/07/14 05:27:23;;;;;;;15.23;5.72;;;21.90;76.60;;;;;;5019015;28;20038;-57
2023/07/14 05:29:49;;;;;;;11.25;4.65;;;21.90;76.60;;;;;;5007376;28;20030;-57
2023/07/14 05:32:16;;;;;;;9.68;5.07;;;21.90;76.60;;;;;;5008458;28;20038;-57
2023/07/14 05:34:41;;;;;;;10.95;5.07;;;21.90;76.60;;;;;;5015070;28;20474;-57
2023/07/14 05:37:07;;;;;;;14.25;4.82;;;21.90;76.60;;;;;;5027843;28;20056;-57
2023/07/14 05:39:33;;;;;;;12.98;3.78;;;21.90;76.60;;;;;;5023584;28;20033;-57
2023/07/14 05:41:59;;;;;;;11.13;3.40;;;21.80;77.40;;;;;;5027291;28;20030;-56
2023/07/14 05:44:24;;;;;;;6.63;3.35;;;21.80;77.90;;;;;;5027511;28;20117;-57
2023/07/14 05:46:50;;;;;;;11.85;3.33;;;21.70;78.60;;;;;;5027855;28;20082;-56
2023/07/14 05:49:16;;;;;;;8.15;2.75;;;21.70;79.10;;;;;;5023194;28;20106;-57
2023/07/14 05:51:42;;;;;;;6.25;3.10;;;21.60;79.40;;;;;;5026973;28;20057;-57
2023/07/14 05:54:08;;;;;;;6.00;2.80;;;21.50;79.80;;;;;;5027031;28;20026;-57
2023/07/14 05:56:34;;;;;;;8.27;3.03;;;21.50;79.90;;;;;;5027740;28;20088;-57
2023/07/14 05:58:59;;;;;;;5.95;2.78;;;21.50;80.00;;;;;;5028321;28;20022;-56
2023/07/14 06:01:25;;;;;;;5.90;2.80;;;21.50;80.20;;;;;;5028199;28;20033;-56
2023/07/14 06:03:51;;;;;;;6.53;2.83;;;21.40;80.20;;;;;;5014041;28;20037;-57
2023/07/14 06:06:16;;;;;;;5.93;2.53;;;21.40;80.50;;;;;;5022865;28;20490;-57
2023/07/14 06:08:42;;;;;;;6.03;2.50;;;21.40;80.70;;;;;;5025229;28;20426;-57
2023/07/14 06:11:08;;;;;;;5.30;2.13;;;21.40;81.00;;;;;;5026049;28;20052;-57
2023/07/14 06:13:33;;;;;;;9.70;2.97;;;21.40;81.20;;;;;;5009600;28;20057;-57
2023/07/14 06:15:59;;;;;;;5.78;2.58;;;21.30;81.30;;;;;;5012666;28;20027;-57
2023/07/14 06:18:25;;;;;;;7.30;2.40;;;21.30;81.50;;;;;;5007016;28;20026;-57
2023/07/14 06:20:50;;;;;;;8.45;2.95;;;21.30;81.40;;;;;;5021693;28;20034;-57
2023/07/14 06:23:16;;;;;;;6.28;2.42;;;21.30;81.40;;;;;;5024362;28;20072;-57
2023/07/14 06:25:42;;;;;;;7.82;2.60;;;21.30;81.50;;;;;;5026148;28;20038;-57
2023/07/14 06:28:08;;;;;;;8.35;2.45;;;21.30;81.50;;;;;;5025857;28;20029;-57
2023/07/14 06:30:34;;;;;;;4.57;2.33;;;21.30;81.50;;;;;;5025201;28;20045;-57
2023/07/14 06:33:01;;;;;;;5.93;2.30;;;21.20;81.30;;;;;;5018137;28;20033;-57
2023/07/14 06:35:26;;;;;;;4.78;2.30;;;21.20;81.30;;;;;;5026431;28;20022;-57
2023/07/14 06:37:52;;;;;;;6.57;2.78;;;21.20;81.30;;;;;;5027087;28;20089;-57
2023/07/14 06:40:18;;;;;;;5.90;2.55;;;21.20;81.20;;;;;;5024239;28;20501;-57
2023/07/14 06:42:43;;;;;;;11.48;2.72;;;21.20;81.20;;;;;;5028210;28;20057;-57
2023/07/14 06:45:09;;;;;;;9.77;2.95;;;21.20;81.10;;;;;;5026011;28;20040;-57
2023/07/14 06:47:35;;;;;;;11.68;2.42;;;21.20;80.90;;;;;;5027332;28;20057;-57
2023/07/14 06:50:00;;;;;;;6.18;2.45;;;21.20;80.80;;;;;;5026441;28;20037;-56
2023/07/14 06:52:26;;;;;;;12.32;2.65;;;21.20;80.70;;;;;;5016894;28;20030;-56
2023/07/14 06:54:52;;;;;;;15.02;3.35;;;21.20;80.60;;;;;;5020943;28;20117;-56
2023/07/14 06:57:18;;;;;;;19.02;3.72;;;21.20;80.50;;;;;;4990889;28;20026;-57
2023/07/14 06:59:44;;;;;;;13.25;3.38;;;21.20;80.40;;;;;;5006719;28;20572;-57
2023/07/14 07:02:11;;;;;;;11.30;2.90;;;21.20;80.30;;;;;;4990141;28;20022;-57
2023/07/14 07:04:37;;;;;;;11.07;2.70;;;21.20;80.10;;;;;;5006369;28;20034;-56
2023/07/14 07:07:04;;;;;;;20.25;4.18;;;21.20;80.00;;;;;;5009519;28;20033;-57
2023/07/14 07:09:29;;;;;;;15.98;3.50;;;21.20;80.00;;;;;;5020227;28;20437;-57
2023/07/14 07:11:55;;;;;;;12.27;3.20;;;21.20;79.90;;;;;;5019256;28;20026;-57
2023/07/14 07:14:20;;;;;;;15.65;3.63;;;21.20;79.90;;;;;;5016584;28;20037;-57
2023/07/14 07:16:46;;;;;;;17.80;3.40;;;21.20;79.70;;;;;;5024262;28;20033;-56
2023/07/14 07:19:12;;;;;;;14.07;4.00;;;21.20;79.90;;;;;;5025627;28;20030;-56
2023/07/14 07:21:37;;;;;;;12.48;3.28;;;21.20;79.80;;;;;;5025552;28;20041;-57
2023/07/14 07:24:04;;;;;;;16.52;2.90;;;21.20;80.10;;;;;;5023752;28;20065;-57
2023/07/14 07:26:30;;;;;;;17.58;3.53;;;21.20;79.90;;;;;;5003008;28;20040;-57
2023/07/14 07:28:55;;;;;;;15.90;3.70;;;21.20;80.20;;;;;;5013470;28;20474;-57
2023/07/14 07:31:21;;;;;;;13.73;3.50;;;21.30;80.00;;;;;;5019339;28;20060;-57
2023/07/14 07:33:46;;;;;;;17.02;3.88;;;21.30;80.00;;;;;;5026417;28;20033;-57
2023/07/14 07:36:16;;;;;;;17.20;4.07;;;21.30;80.00;;;;;;5022019;28;20038;-56
2023/07/14 07:38:47;;;;;;;19.65;3.50;;;21.30;79.80;;;;;;5008284;28;20025;-57
2023/07/14 07:41:14;;;;;;;23.67;4.78;;;21.20;79.60;;;;;;5025048;28;20086;-56
2023/07/14 07:43:40;;;;;;;28.25;4.90;;;21.30;79.80;;;;;;5024375;28;20021;-57
2023/07/14 07:46:05;;;;;;;58.20;6.63;;;21.30;79.60;;;;;;5023626;28;20086;-57
2023/07/14 07:48:31;;;;;;;60.40;5.95;;;21.30;79.70;;;;;;5009337;28;20482;-57
2023/07/14 07:50:57;;;;;;;33.42;5.20;;;21.40;80.00;;;;;;5024508;28;20078;-57
2023/07/14 07:53:22;;;;;;;40.88;6.97;;;21.40;79.90;;;;;;5022653;28;20026;-57
2023/07/14 07:55:52;;;;;;;32.28;4.95;;;21.40;79.90;;;;;;5011650;28;20054;-57
2023/07/14 07:58:18;;;;;;;27.55;5.20;;;21.40;79.40;;;;;;5021216;28;20022;-57
2023/07/14 08:00:45;;;;;;;36.45;6.10;;;21.40;79.50;;;;;;5024415;28;20088;-57
2023/07/14 08:03:10;;;;;;;37.95;6.47;;;21.50;80.10;;;;;;5021476;28;20026;-56
2023/07/14 08:05:37;;;;;;;46.30;6.55;;;21.40;79.30;;;;;;5021577;28;20044;-57
2023/07/14 08:08:03;;;;;;;39.00;5.38;;;21.50;79.30;;;;;;5023752;28;20026;-57
2023/07/14 08:10:29;;;;;;;34.42;5.47;;;21.50;79.40;;;;;;5024261;28;20056;-57
2023/07/14 08:12:54;;;;;;;107.03;12.43;;;21.50;79.50;;;;;;5013262;28;20044;-57
2023/07/14 08:15:22;;;;;;;46.67;8.25;;;21.50;79.30;;;;;;5015119;28;20035;-57
2023/07/14 08:17:54;;;;;;;49.85;8.65;;;21.50;79.40;;;;;;5022437;28;20030;-57
2023/07/14 08:20:20;;;;;;;61.58;9.85;;;21.50;79.20;;;;;;5001408;28;20061;-57
2023/07/14 08:22:46;;;;;;;82.03;11.95;;;21.50;79.10;;;;;;5007588;28;20059;-57
2023/07/14 08:25:12;;;;;;;90.43;11.73;;;21.60;79.20;;;;;;5041424;28;20109;-56
2023/07/14 08:27:38;;;;;;;67.55;10.27;;;21.60;79.20;;;;;;5024070;28;20450;-56
2023/07/14 08:30:06;;;;;;;68.70;10.10;;;21.60;79.40;;;;;;5021150;28;20058;-57
2023/07/14 08:32:33;;;;;;;63.70;9.25;;;21.60;79.40;;;;;;5021666;28;20030;-57
2023/07/14 08:34:58;;;;;;;56.28;8.50;;;21.60;79.30;;;;;;5018599;28;20041;-57
2023/07/14 08:37:24;;;;;;;61.05;9.00;;;21.70;79.40;;;;;;5029882;28;20029;-55
2023/07/14 08:39:49;;;;;;;48.03;7.47;;;21.70;79.20;;;;;;5015848;28;20034;-57
2023/07/14 08:42:56;;;;;;;55.08;7.30;;;21.70;79.80;;;;;;5015626;28;20042;-57
2023/07/14 08:45:39;;;;;;;43.38;7.45;;;21.70;79.40;;;;;;4973088;28;20054;-57
2023/07/14 08:48:30;;;;;;;60.22;9.35;;;21.80;79.60;;;;;;5016806;28;20038;-57
2023/07/14 08:51:00;;;;;;;51.38;8.55;;;21.80;79.90;;;;;;5004199;28;20077;-57
2023/07/14 08:53:26;;;;;;;70.18;8.75;;;21.90;80.20;;;;;;5010039;28;20026;-57
2023/07/14 08:55:56;;;;;;;44.05;7.47;;;21.90;80.60;;;;;;5017198;28;20030;-57
2023/07/14 08:58:24;;;;;;;59.90;8.15;;;21.90;80.60;;;;;;5007630;28;20034;-57
2023/07/14 09:00:49;;;;;;;51.08;8.02;;;21.90;80.30;;;;;;5023695;28;20034;-57
2023/07/14 09:03:35;;;;;;;34.28;5.75;;;22.00;80.40;;;;;;5016034;28;20136;-57
2023/07/14 09:06:04;;;;;;;47.92;7.32;;;22.00;80.90;;;;;;5011340;28;20033;-57
2023/07/14 09:08:31;;;;;;;71.13;9.85;;;22.00;80.60;;;;;;5012106;28;20048;-57
2023/07/14 09:11:05;;;;;;;79.43;10.38;;;22.00;80.40;;;;;;5010366;28;20049;-57
2023/07/14 09:13:57;;;;;;;46.22;7.50;;;22.10;80.40;;;;;;5019254;28;20026;-57
2023/07/14 09:16:23;;;;;;;81.50;9.70;;;22.10;80.40;;;;;;5010035;28;20068;-57
2023/07/14 09:19:11;;;;;;;62.28;8.52;;;22.10;80.10;;;;;;5014664;28;20042;-57
2023/07/14 09:21:51;;;;;;;68.15;9.68;;;22.20;80.60;;;;;;5009841;28;20085;-57
2023/07/14 09:24:22;;;;;;;86.50;10.98;;;22.20;80.20;;;;;;5018275;28;20072;-57
2023/07/14 09:26:55;;;;;;;96.38;12.68;;;22.20;80.30;;;;;;5021898;28;20036;-57
2023/07/14 09:29:40;;;;;;;83.18;12.48;;;22.30;80.40;;;;;;4995297;28;20030;-57
2023/07/14 09:32:15;;;;;;;112.30;15.07;;;22.30;80.60;;;;;;5005245;28;20390;-57
2023/07/14 09:34:44;;;;;;;113.75;16.42;;;22.30;80.70;;;;;;5026335;28;20533;-57
2023/07/14 09:37:19;;;;;;;79.80;12.23;;;22.30;81.10;;;;;;5018167;28;20054;-56
2023/07/14 09:39:45;;;;;;;114.05;16.27;;;22.40;81.10;;;;;;5003154;28;20041;-57
2023/07/14 09:42:22;;;;;;;115.45;14.07;;;22.40;80.70;;;;;;5014191;28;20120;-57
2023/07/14 09:44:48;;;;;;;102.60;14.07;;;22.50;80.80;;;;;;5031356;28;20034;-56
2023/07/14 09:47:14;;;;;;;96.07;13.07;;;22.50;80.70;;;;;;5008611;28;20413;-57
2023/07/14 09:49:42;;;;;;;116.03;15.27;;;22.50;81.00;;;;;;5033399;28;20113;-57
2023/07/14 09:52:11;;;;;;;115.72;15.95;;;22.60;81.20;;;;;;4990998;28;20033;-56
2023/07/14 09:54:49;;;;;;;118.10;16.50;;;22.60;81.80;;;;;;5017211;28;20042;-56
2023/07/14 09:57:17;;;;;;;101.88;14.10;;;22.60;81.30;;;;;;5013534;28;20097;-56
2023/07/14 09:59:57;;;;;;;89.43;12.00;;;22.70;81.20;;;;;;5018158;28;20122;-57
2023/07/14 10:02:30;;;;;;;76.82;11.25;;;22.70;81.50;;;;;;5000719;28;20042;-56
2023/07/14 10:05:01;;;;;;;113.15;14.73;;;22.80;81.30;;;;;;5021395;28;20034;-57
2023/07/14 10:07:26;;;;;;;68.30;11.45;;;22.90;81.70;;;;;;5019870;28;20088;-57
2023/07/14 10:10:09;;;;;;;107.22;13.20;;;22.90;81.50;;;;;;5016441;28;20042;-57
2023/07/14 10:12:54;;;;;;;66.07;10.25;;;23.00;81.30;;;;;;4996773;28;20033;-57
2023/07/14 10:15:39;;;;;;;78.82;10.70;;;23.00;81.20;;;;;;5019172;28;20060;-57
2023/07/14 10:18:15;;;;;;;;;;;23.10;81.30;;;;;;5014624;28;20038;-57
2023/07/14 10:20:41;;;;;;;81.32;11.18;;;23.10;81.00;;;;;;5014669;28;19924;-57
2023/07/14 10:23:15;;;;;;;62.30;11.55;;;23.20;80.60;;;;;;5000047;28;20026;-57
2023/07/14 10:25:42;;;;;;;68.35;10.73;;;23.30;80.60;;;;;;4984329;28;20121;-57
2023/07/14 10:28:11;;;;;;;84.32;11.65;;;23.30;80.40;;;;;;5012567;28;20057;-57
2023/07/14 10:30:41;;;;;;;109.78;14.63;;;23.30;80.30;;;;;;5000095;28;20030;-57
2023/07/14 10:33:13;;;;;;;74.35;11.82;;;23.40;80.20;;;;;;5006938;28;20030;-57
2023/07/14 10:35:38;;;;;;;104.13;13.32;;;23.40;80.10;;;;;;5010315;28;20026;-57
2023/07/14 10:38:20;;;;;;;82.43;11.25;;;23.50;80.00;;;;;;5011552;28;20077;-57
2023/07/14 10:41:02;;;;;;;73.20;11.35;;;23.50;79.80;;;;;;4986381;28;20038;-57
2023/07/14 10:43:49;;;;;;;73.85;10.82;;;23.60;79.80;;;;;;5015767;28;20054;-57
2023/07/14 10:46:21;;;;;;;63.10;10.57;;;23.70;79.50;;;;;;5012257;28;20041;-57
2023/07/14 10:49:21;;;;;;;87.07;11.15;;;23.70;79.00;;;;;;5011841;28;20109;-57
2023/07/14 10:51:49;;;;;;;66.13;9.23;;;23.80;79.00;;;;;;5018450;28;20029;-57
2023/07/14 10:54:21;;;;;;;68.07;10.10;;;23.80;78.70;;;;;;5008796;28;20022;-57
2023/07/14 10:56:50;;;;;;;59.55;10.50;;;23.90;78.50;;;;;;5010660;28;20169;-57
2023/07/14 10:59:28;;;;;;;60.97;10.07;;;24.00;78.60;;;;;;5015627;28;20034;-57
2023/07/14 11:02:15;;;;;;;74.80;10.65;;;24.10;78.40;;;;;;5001857;28;20026;-57
2023/07/14 11:04:57;;;;;;;92.32;10.35;;;24.20;78.10;;;;;;5003078;28;20030;-56
2023/07/14 11:07:30;;;;;;;61.03;8.65;;;24.30;77.70;;;;;;5016892;28;20026;-56
2023/07/14 11:09:59;;;;;;;61.00;8.93;;;24.40;77.30;;;;;;5020909;28;20034;-57
2023/07/14 11:12:40;;;;;;;54.00;9.10;;;24.40;76.50;;;;;;5017629;28;20029;-56
2023/07/14 11:15:17;;;;;;;54.78;8.18;;;24.50;76.20;;;;;;5015339;28;20050;-56
2023/07/14 11:18:08;;;;;;;64.35;10.13;;;24.60;75.90;;;;;;5012632;28;20026;-57
2023/07/14 11:20:54;;;;;;;85.70;12.27;;;24.70;75.70;;;;;;5014942;28;20026;-57
2023/07/14 11:23:32;;;;;;;50.45;7.03;;;24.80;75.00;;;;;;5019554;28;20026;-57
2023/07/14 11:26:04;;;;;;;40.67;6.07;;;24.80;74.10;;;;;;5018632;28;20068;-57
2023/07/14 11:28:56;;;;;;;46.97;7.63;;;24.90;73.20;;;;;;5019790;28;20025;-56
2023/07/14 11:31:29;;;;;;;53.67;8.25;;;25.00;73.10;;;;;;5016766;28;20042;-57
2023/07/14 11:33:57;;;;;;;53.50;8.00;;;25.00;72.80;;;;;;5016857;28;20086;-57
2023/07/14 11:36:40;;;;;;;32.10;5.63;;;25.20;72.90;;;;;;5017901;28;20041;-57
2023/07/14 11:39:23;;;;;;;69.07;9.90;;;25.30;72.60;;;;;;5014231;28;20405;-56
2023/07/14 11:41:49;;;;;;;44.80;6.88;;;25.30;72.40;;;;;;5025785;28;20033;-57
2023/07/14 11:44:18;;;;;;;41.15;5.72;;;25.40;71.90;;;;;;5004933;28;20128;-57
2023/07/14 11:46:44;;;;;;;27.95;4.70;;;25.50;71.80;;;;;;5010994;28;20060;-57
2023/07/14 11:49:34;;;;;;;25.70;4.18;;;25.50;71.40;;;;;;5025125;28;20034;-57
2023/07/14 11:52:13;;;;;;;34.42;5.80;;;25.60;71.10;;;;;;5021251;28;20054;-56
2023/07/14 11:54:43;;;;;;;34.55;5.88;;;25.70;70.90;;;;;;5018798;28;20056;-56
2023/07/14 11:57:17;;;;;;;26.63;5.38;;;25.80;70.70;;;;;;5014838;28;20026;-56
2023/07/14 12:00:02;;;;;;;22.23;4.65;;;25.90;70.50;;;;;;4999427;28;20030;-57
2023/07/14 12:02:29;;;;;;;22.73;4.53;;;26.00;70.40;;;;;;5018957;28;20511;-57
2023/07/14 12:05:14;;;;;;;27.98;4.70;;;26.00;70.10;;;;;;5024788;28;20061;-57
2023/07/14 12:08:02;;;;;;;40.45;6.75;;;26.10;70.00;;;;;;5012701;28;20066;-57
2023/07/14 12:10:43;;;;;;;19.83;3.83;;;26.20;69.80;;;;;;5024985;28;20040;-57
2023/07/14 12:13:11;;;;;;;30.55;4.43;;;26.20;69.30;;;;;;5018217;28;20022;-57
2023/07/14 12:15:44;;;;;;;26.63;4.72;;;26.30;69.40;;;;;;5008184;28;20058;-57
2023/07/14 12:18:26;;;;;;;19.75;4.07;;;26.40;68.80;;;;;;5017666;28;20026;-56
2023/07/14 12:21:12;;;;;;;26.38;4.63;;;26.40;68.00;;;;;;5007241;28;20060;-57
2023/07/14 12:23:38;;;;;;;25.27;4.60;;;26.50;68.30;;;;;;5020705;28;20164;-57
2023/07/14 12:26:08;;;;;;;16.35;3.35;;;26.50;67.80;;;;;;5008808;28;20437;-57
2023/07/14 12:28:36;;;;;;;29.60;4.88;;;26.60;67.30;;;;;;5005437;28;20065;-57
2023/07/14 12:31:04;;;;;;;25.00;4.18;;;26.70;66.80;;;;;;5008210;28;20097;-57
2023/07/14 12:33:30;;;;;;;40.78;5.53;;;26.80;66.60;;;;;;5008727;28;20113;-57
2023/07/14 12:35:56;;;;;;;38.15;6.13;;;26.90;66.60;;;;;;5021604;28;20041;-57
2023/07/14 12:38:22;;;;;;;51.47;5.82;;;26.90;66.30;;;;;;5007140;28;20026;-57
2023/07/14 12:40:50;;;;;;;23.17;4.28;;;27.00;65.80;;;;;;5023727;28;20100;-57
2023/07/14 12:43:32;;;;;;;25.77;4.60;;;27.10;65.50;;;;;;4995215;28;20393;-57
2023/07/14 12:45:58;;;;;;;28.60;4.97;;;27.20;65.70;;;;;;5022283;28;20038;-57
2023/07/14 12:48:26;;;;;;;33.28;5.25;;;27.30;65.40;;;;;;5013092;28;20034;-56
2023/07/14 12:50:52;;;;;;;58.13;6.57;;;27.30;65.10;;;;;;5018792;28;20096;-56